createdAt,value
2022-12-18T00:07:20.354Z,29
2022-12-18T00:17:22.654Z,35
2022-12-18T00:27:28.738Z,34
2022-12-18T00:37:33.732Z,33
2022-12-18T00:47:39.957Z,31
2022-12-18T00:57:44.685Z,30
2022-12-18T01:07:51.927Z,33
2022-12-18T01:17:57.564Z,34
2022-12-18T01:28:03.822Z,29
2022-12-18T01:38:10.041Z,31
2022-12-18T01:48:17.017Z,31
2022-12-18T01:58:23.884Z,32
2022-12-18T02:08:31.480Z,28
2022-12-18T02:18:37.747Z,30
2022-12-18T02:28:43.839Z,32
2022-12-18T02:38:48.482Z,36
2022-12-18T02:48:54.147Z,29
2022-12-18T02:59:00.125Z,26
2022-12-18T03:09:04.438Z,25
2022-12-18T03:19:16.945Z,25
2022-12-18T03:29:16.146Z,26
2022-12-18T03:39:20.371Z,27
2022-12-18T03:49:28.310Z,25
2022-12-18T03:59:35.096Z,25
2022-12-18T04:09:39.686Z,26
2022-12-18T04:19:44.990Z,22
2022-12-18T04:29:49.971Z,26
2022-12-18T04:39:57.520Z,23
2022-12-18T04:50:03.412Z,24
2022-12-18T05:00:09.366Z,26
2022-12-18T05:10:14.000Z,22
2022-12-18T05:20:19.241Z,22
2022-12-18T05:30:24.936Z,20
2022-12-18T05:40:29.956Z,21
2022-12-18T05:50:35.087Z,21
2022-12-18T06:00:41.116Z,21
2022-12-18T06:10:44.878Z,26
2022-12-18T06:20:52.747Z,22
2022-12-18T06:30:57.969Z,24
2022-12-18T06:41:05.379Z,26
2022-12-18T06:51:12.797Z,26
2022-12-18T07:01:17.121Z,30
2022-12-18T07:11:32.718Z,28
2022-12-18T07:21:29.899Z,29
2022-12-18T07:31:37.569Z,27
2022-12-18T07:41:46.649Z,26
2022-12-18T07:51:47.473Z,25
2022-12-18T08:01:57.928Z,26
2022-12-18T08:12:01.046Z,26
2022-12-18T08:22:08.902Z,27
2022-12-18T08:32:16.126Z,30
2022-12-18T08:42:21.128Z,29
2022-12-18T08:52:26.456Z,24
2022-12-18T09:02:31.551Z,23
2022-12-18T09:12:34.427Z,23
2022-12-18T09:22:40.632Z,19
2022-12-18T09:32:53.253Z,22
2022-12-18T09:42:54.302Z,25
2022-12-18T09:52:59.775Z,23
2022-12-18T10:03:07.007Z,18
2022-12-18T10:13:10.993Z,28
2022-12-18T10:23:18.994Z,25
2022-12-18T10:33:26.583Z,27
2022-12-18T10:43:31.385Z,27
2022-12-18T10:53:37.193Z,24
2022-12-18T11:03:44.824Z,28
2022-12-18T11:13:50.117Z,27
2022-12-18T11:23:54.196Z,30
2022-12-18T11:34:27.244Z,31
2022-12-18T11:44:22.397Z,26
2022-12-18T11:54:29.656Z,25
2022-12-18T12:04:35.779Z,29
2022-12-18T12:14:40.662Z,25
2022-12-18T12:24:46.632Z,27
2022-12-18T12:34:59.577Z,31
2022-12-18T12:45:05.507Z,28
2022-12-18T12:55:14.541Z,29
2022-12-18T13:05:17.375Z,25
2022-12-18T13:15:21.353Z,32
2022-12-18T13:25:29.155Z,25
2022-12-18T13:35:31.822Z,31
2022-12-18T13:45:38.980Z,33
2022-12-18T13:55:45.043Z,33
2022-12-18T14:05:50.955Z,32
2022-12-18T14:15:56.016Z,30
2022-12-18T14:26:05.317Z,39
2022-12-18T14:36:06.854Z,37
2022-12-18T14:46:18.710Z,35
2022-12-18T14:56:18.781Z,33
2022-12-18T15:06:25.886Z,33
2022-12-18T15:16:31.508Z,49
2022-12-18T15:26:37.194Z,30
2022-12-18T15:36:40.526Z,59
2022-12-18T15:46:49.153Z,41
2022-12-18T15:56:54.716Z,35
2022-12-18T16:07:15.233Z,52
2022-12-18T16:17:17.916Z,44
2022-12-18T16:27:23.098Z,59
2022-12-18T16:37:35.235Z,63
2022-12-18T16:47:34.284Z,46
2022-12-18T16:57:38.882Z,49
2022-12-18T17:07:43.451Z,37
2022-12-18T17:18:11.228Z,45
2022-12-18T17:28:02.987Z,54
2022-12-18T17:38:09.346Z,40
2022-12-18T17:48:15.188Z,44
2022-12-18T17:58:19.513Z,39
2022-12-18T18:08:27.875Z,40
2022-12-18T18:18:29.810Z,57
2022-12-18T18:28:36.937Z,50
2022-12-18T18:38:45.431Z,41
2022-12-18T18:48:45.920Z,42
2022-12-18T18:59:31.421Z,35
2022-12-18T19:09:34.832Z,32
2022-12-18T19:19:52.235Z,34
2022-12-18T19:29:46.413Z,40
2022-12-18T19:39:52.680Z,36
2022-12-18T19:50:00.169Z,38
2022-12-18T20:00:04.054Z,38
2022-12-18T20:10:11.754Z,37
2022-12-18T20:20:16.533Z,36
2022-12-18T20:30:23.782Z,39
2022-12-18T20:40:32.168Z,34
2022-12-18T20:50:35.183Z,37
2022-12-18T21:00:43.944Z,34
2022-12-18T21:10:48.755Z,33
2022-12-18T21:21:00.706Z,63
2022-12-18T21:31:00.466Z,35
2022-12-18T21:41:05.047Z,28
2022-12-18T21:51:09.728Z,28
2022-12-18T22:01:19.361Z,23
2022-12-18T22:11:22.026Z,23
2022-12-18T22:21:29.704Z,25
2022-12-18T22:31:41.966Z,24
2022-12-18T22:41:40.687Z,19
2022-12-18T22:51:46.497Z,36
2022-12-18T23:01:52.941Z,36
2022-12-18T23:11:59.397Z,36
2022-12-18T23:22:11.654Z,27
2022-12-18T23:32:10.053Z,24
2022-12-18T23:42:15.774Z,28
2022-12-18T23:52:24.509Z,15
